Time;durP1;ratioP1;P1;durP2;ratioP2;P2;SDS_P1;SDS_P2;PMS_P1;PMS_P2;Temp;Humidity;BMP_temperature;BMP_pressure;BME280_temperature;BME280_humidity;BME280_pressure;Samples;Min_cycle;Max_cycle;Signal;HPM_P1;HPM_P2
2023/12/15 00:00:08;;;;;;;2.20;1.60;;;;;;;8.36;100.00;94832.06;5134250;27;20503;-60
2023/12/15 00:02:37;;;;;;;8.37;3.93;;;;;;;8.19;100.00;94832.31;5134455;27;20439;-60
2023/12/15 00:05:06;;;;;;;2.23;2.13;;;;;;;8.28;100.00;94832.59;5133577;27;20442;-60
2023/12/15 00:07:35;;;;;;;5.17;4.67;;;;;;;8.35;100.00;94838.38;5134184;27;20435;-60
2023/12/15 00:10:04;;;;;;;4.10;2.40;;;;;;;8.45;100.00;94846.28;5133650;27;20826;-60
2023/12/15 00:12:34;;;;;;;4.70;2.43;;;;;;;8.40;100.00;94859.50;5134623;27;20441;-60
2023/12/15 00:15:04;;;;;;;1.83;1.73;;;;;;;8.19;100.00;94831.53;5129152;27;20439;-60
2023/12/15 00:17:32;;;;;;;9.03;2.03;;;;;;;8.21;100.00;94867.16;5125655;27;20478;-60
2023/12/15 00:20:02;;;;;;;1.80;1.73;;;;;;;8.26;100.00;94859.28;5132982;27;20496;-60
2023/12/15 00:22:30;;;;;;;24.97;2.40;;;;;;;8.32;100.00;94852.13;5133929;27;20549;-60
2023/12/15 00:24:59;;;;;;;13.73;1.07;;;;;;;8.29;100.00;94860.59;5133771;27;20809;-60
2023/12/15 00:27:27;;;;;;;3.03;2.83;;;;;;;8.33;100.00;94859.00;5133195;27;20442;-61
2023/12/15 00:29:57;;;;;;;2.43;2.27;;;;;;;8.32;100.00;94866.13;5133009;27;20434;-61
2023/12/15 00:32:26;;;;;;;1.27;1.00;;;;;;;8.21;100.00;94851.31;5133218;27;20430;-60
2023/12/15 00:34:55;;;;;;;1.63;1.13;;;;;;;8.38;100.00;94872.19;5133901;27;20430;-60
2023/12/15 00:37:23;;;;;;;4.10;1.40;;;;;;;8.56;100.00;94868.19;5132014;27;21105;-60
2023/12/15 00:39:52;;;;;;;1.43;1.33;;;;;;;8.63;100.00;94866.88;5134097;27;20438;-61
2023/12/15 00:42:20;;;;;;;0.87;0.87;;;;;;;8.50;100.00;94880.63;5132622;27;20442;-60
2023/12/15 00:44:49;;;;;;;4.40;2.40;;;;;;;7.91;100.00;94880.34;5124089;27;20439;-61
2023/12/15 00:47:19;;;;;;;4.23;3.23;;;;;;;7.73;100.00;94882.69;5129014;27;20831;-60
2023/12/15 00:49:48;;;;;;;6.47;5.97;;;;;;;8.00;100.00;94872.69;5133467;27;20562;-60
2023/12/15 00:52:16;;;;;;;6.33;5.43;;;;;;;8.19;100.00;94886.97;5133425;27;20466;-59
2023/12/15 00:54:45;;;;;;;8.60;3.80;;;;;;;8.26;100.00;94895.41;5133600;27;20446;-60
2023/12/15 00:57:14;;;;;;;6.83;4.23;;;;;;;8.07;100.00;94887.22;5132803;27;20827;-61
2023/12/15 00:59:42;;;;;;;5.53;3.80;;;;;;;7.94;100.00;94892.22;5133165;27;20521;-60
2023/12/15 01:02:11;;;;;;;6.13;3.97;;;;;;;8.12;100.00;94892.50;5132918;27;20427;-60
2023/12/15 01:04:41;;;;;;;2.83;2.00;;;;;;;8.07;100.00;94900.41;5133286;27;20525;-60
2023/12/15 01:07:09;;;;;;;7.13;3.83;;;;;;;8.10;100.00;94896.44;5105955;27;20832;-60
2023/12/15 01:09:38;;;;;;;3.67;1.73;;;;;;;8.09;100.00;94898.31;5132727;27;20439;-60
2023/12/15 01:12:06;;;;;;;7.50;3.27;;;;;;;8.12;100.00;94900.41;5132832;27;20442;-60
2023/12/15 01:14:35;;;;;;;7.13;2.00;;;;;;;8.19;100.00;94892.25;5132103;27;20514;-60
2023/12/15 01:17:04;;;;;;;8.10;1.33;;;;;;;8.19;100.00;94900.16;5132821;27;20527;-60
2023/12/15 01:19:33;;;;;;;0.80;0.80;;;;;;;8.31;100.00;94903.34;5132700;27;20478;-60
2023/12/15 01:22:03;;;;;;;0.40;0.30;;;;;;;8.41;100.00;94898.06;5123965;27;20431;-61
2023/12/15 01:24:32;;;;;;;1.30;1.30;;;;;;;8.40;100.00;94898.34;5128674;27;20484;-60
2023/12/15 01:27:00;;;;;;;0.60;0.43;;;;;;;8.44;100.00;94899.38;5133200;27;20521;-61
2023/12/15 01:29:29;;;;;;;0.70;0.70;;;;;;;8.42;100.00;94898.88;5131933;27;20443;-60
2023/12/15 01:31:57;;;;;;;0.50;0.47;;;;;;;8.37;100.00;94881.19;5132234;27;20792;-61
2023/12/15 01:34:26;;;;;;;4.97;0.67;;;;;;;8.60;100.00;94891.16;5132119;27;20511;-61
2023/12/15 01:36:55;;;;;;;0.60;0.50;;;;;;;8.73;100.00;94903.81;5132648;27;20502;-60
2023/12/15 01:39:24;;;;;;;0.30;0.30;;;;;;;8.64;100.00;94918.66;5132251;27;20466;-59
2023/12/15 01:41:53;;;;;;;0.40;0.30;;;;;;;8.29;100.00;94916.81;5132406;27;20438;-60
2023/12/15 01:44:22;;;;;;;3.70;0.90;;;;;;;7.99;100.00;94939.72;5131883;27;20446;-60
2023/12/15 01:46:50;;;;;;;2.10;1.50;;;;;;;8.23;100.00;94932.88;5132727;27;20445;-60
2023/12/15 01:49:19;;;;;;;1.07;0.97;;;;;;;8.08;100.00;94885.38;5132103;27;20478;-60
2023/12/15 01:51:48;;;;;;;1.47;1.40;;;;;;;8.45;100.00;94936.06;5131972;27;20475;-60
2023/12/15 01:54:16;;;;;;;1.20;1.10;;;;;;;7.93;100.00;94943.41;5132790;27;20438;-60
2023/12/15 01:56:46;;;;;;;3.13;2.47;;;;;;;7.29;100.00;94943.75;5131855;27;20442;-60
2023/12/15 01:59:15;;;;;;;21.53;3.83;;;;;;;7.40;100.00;94949.84;5131692;27;20962;-60
2023/12/15 02:01:43;;;;;;;1.67;1.57;;;;;;;7.77;100.00;94947.09;5131983;28;21006;-60
2023/12/15 02:04:12;;;;;;;5.17;2.50;;;;;;;7.96;100.00;94954.25;5132483;27;20431;-60
2023/12/15 02:06:41;;;;;;;5.93;5.33;;;;;;;7.78;100.00;94957.38;5132043;28;20541;-60
2023/12/15 02:09:09;;;;;;;5.10;2.73;;;;;;;7.99;100.00;94948.44;5132306;27;20442;-60
2023/12/15 02:11:38;;;;;;;4.40;2.13;;;;;;;7.65;100.00;94953.38;5131680;27;20982;-60
2023/12/15 02:14:08;;;;;;;1.30;1.30;;;;;;;7.72;100.00;94954.94;5132313;27;20761;-61
2023/12/15 02:16:36;;;;;;;2.70;2.60;;;;;;;7.78;100.00;94938.09;5132145;27;20435;-61
2023/12/15 02:19:05;;;;;;;5.37;1.47;;;;;;;7.85;100.00;94957.09;5132288;28;20466;-60
2023/12/15 02:21:34;;;;;;;0.90;0.90;;;;;;;7.98;100.00;94953.97;5132205;28;20430;-60
2023/12/15 02:24:04;;;;;;;1.80;1.23;;;;;;;7.99;100.00;94958.22;5132207;27;20438;-60
2023/12/15 02:26:32;;;;;;;1.20;0.73;;;;;;;8.06;100.00;94953.47;5131225;27;20434;-60
2023/12/15 02:29:01;;;;;;;0.80;0.80;;;;;;;7.68;100.00;94886.91;5131642;27;20525;-61
2023/12/15 02:31:30;;;;;;;1.63;1.37;;;;;;;7.98;100.00;94941.56;5125128;28;20432;-61
2023/12/15 02:33:58;;;;;;;0.93;0.93;;;;;;;8.11;100.00;94953.47;5125338;28;20434;-60
2023/12/15 02:36:27;;;;;;;0.57;0.50;;;;;;;8.20;100.00;94963.25;5132133;28;20435;-61
2023/12/15 02:38:55;;;;;;;0.50;0.30;;;;;;;8.05;100.00;94959.78;5131563;27;20466;-60
2023/12/15 02:41:25;;;;;;;0.40;0.27;;;;;;;8.10;100.00;94959.78;5132001;27;20439;-61
2023/12/15 02:43:54;;;;;;;0.60;0.40;;;;;;;8.21;100.00;94969.31;5130725;28;20438;-61
2023/12/15 02:46:23;;;;;;;0.30;0.20;;;;;;;8.30;100.00;94951.91;5132293;28;20442;-61
2023/12/15 02:48:51;;;;;;;0.30;0.20;;;;;;;8.34;100.00;94955.63;5131722;28;20430;-61
2023/12/15 02:51:28;;;;;;;0.40;0.40;;;;;;;8.28;100.00;94965.41;5131897;28;20545;-61
2023/12/15 02:53:58;;;;;;;0.40;0.30;;;;;;;8.32;100.00;94955.13;5131377;27;21062;-60
2023/12/15 02:56:29;;;;;;;0.40;0.23;;;;;;;8.33;100.00;94969.88;5131600;27;20827;-60
2023/12/15 02:58:57;;;;;;;0.97;0.30;;;;;;;8.26;100.00;94975.44;5131414;27;20466;-60
2023/12/15 03:01:26;;;;;;;0.80;0.80;;;;;;;8.27;100.00;94976.22;5134887;27;20444;-60
2023/12/15 03:03:55;;;;;;;0.30;0.20;;;;;;;8.30;100.00;94975.69;5134891;27;20465;-60
2023/12/15 03:06:23;;;;;;;0.30;0.20;;;;;;;8.25;100.00;94962.44;5135464;27;20430;-60
2023/12/15 03:08:52;;;;;;;0.47;0.33;;;;;;;8.44;100.00;94976.75;5135459;27;20442;-60
2023/12/15 03:11:20;;;;;;;0.30;0.20;;;;;;;8.50;100.00;94977.56;5135114;27;20495;-60
2023/12/15 03:13:51;;;;;;;0.30;0.20;;;;;;;8.56;100.00;94985.22;5135471;27;20511;-61
2023/12/15 03:16:19;;;;;;;0.50;0.30;;;;;;;8.48;100.00;94993.66;5134802;27;20446;-60
2023/12/15 03:18:48;;;;;;;0.30;0.20;;;;;;;8.47;100.00;94992.09;5135107;27;20431;-59
2023/12/15 03:21:16;;;;;;;0.30;0.20;;;;;;;8.45;100.00;94996.03;5134348;27;20446;-59
2023/12/15 03:23:45;;;;;;;0.47;0.47;;;;;;;8.55;100.00;95004.75;5135190;27;20468;-60
2023/12/15 03:26:13;;;;;;;0.40;0.40;;;;;;;8.52;100.00;95005.28;5134218;27;20499;-60
2023/12/15 03:28:42;;;;;;;0.60;0.60;;;;;;;8.59;100.00;95008.47;5135365;27;20811;-60
2023/12/15 03:31:12;;;;;;;0.30;0.20;;;;;;;8.52;100.00;95015.06;5135021;27;20503;-60
2023/12/15 03:33:40;;;;;;;0.50;0.50;;;;;;;8.47;100.00;95013.22;5134047;27;20517;-61
2023/12/15 03:36:09;;;;;;;2.70;0.63;;;;;;;8.49;100.00;95016.38;5134938;27;20859;-60
2023/12/15 03:38:38;;;;;;;0.50;0.50;;;;;;;8.58;100.00;95019.28;5134595;27;20439;-61
2023/12/15 03:41:07;;;;;;;0.63;0.60;;;;;;;8.54;100.00;95019.03;5134485;27;20970;-60
2023/12/15 03:43:35;;;;;;;0.30;0.20;;;;;;;8.66;100.00;95018.75;5135164;27;20443;-60
2023/12/15 03:46:04;;;;;;;0.40;0.30;;;;;;;8.65;100.00;95025.13;5134964;27;20439;-61
2023/12/15 03:48:34;;;;;;;0.50;0.40;;;;;;;8.72;100.00;95010.59;5134772;27;20441;-59
2023/12/15 03:51:03;;;;;;;0.40;0.30;;;;;;;8.84;100.00;95024.31;5134531;27;20476;-60
2023/12/15 03:53:33;;;;;;;1.23;0.60;;;;;;;8.83;100.00;95014.00;5134101;27;20446;-60
2023/12/15 03:56:02;;;;;;;2.20;0.40;;;;;;;8.86;100.00;95021.41;5134159;27;20427;-60
2023/12/15 03:58:31;;;;;;;0.50;0.40;;;;;;;8.60;100.00;95011.91;5134265;27;20438;-59
2023/12/15 04:00:59;;;;;;;0.53;0.40;;;;;;;8.59;100.00;95026.16;5134330;27;20561;-60
2023/12/15 04:03:28;;;;;;;0.40;0.30;;;;;;;8.58;100.00;95030.63;5133542;27;20514;-60
2023/12/15 04:05:57;;;;;;;0.40;0.40;;;;;;;8.57;100.00;95023.00;5134123;27;20525;-60
2023/12/15 04:08:26;;;;;;;0.40;0.30;;;;;;;8.69;100.00;95053.38;5134054;27;20481;-60
2023/12/15 04:10:55;;;;;;;1.23;1.00;;;;;;;8.61;100.00;95055.72;5133989;27;20438;-61
2023/12/15 04:13:24;;;;;;;0.70;0.70;;;;;;;8.60;100.00;95064.72;5134209;27;20457;-60
2023/12/15 04:15:52;;;;;;;0.60;0.60;;;;;;;8.78;100.00;95072.13;5134077;27;20430;-59
2023/12/15 04:18:24;;;;;;;0.30;0.20;;;;;;;8.62;100.00;95068.69;5120451;27;20522;-60
2023/12/15 04:20:53;;;;;;;0.30;0.20;;;;;;;8.72;100.00;95057.34;5134010;27;20901;-60
2023/12/15 04:23:23;;;;;;;0.30;0.23;;;;;;;8.65;100.00;95059.47;5134163;27;20805;-60
2023/12/15 04:25:51;;;;;;;0.50;0.30;;;;;;;8.74;100.00;95061.31;5133240;27;20435;-60
2023/12/15 04:28:20;;;;;;;0.93;0.93;;;;;;;8.76;100.00;95061.03;5133718;27;20547;-60
2023/12/15 04:30:48;;;;;;;0.40;0.30;;;;;;;8.64;100.00;95052.56;5133367;27;20929;-59
2023/12/15 04:33:17;;;;;;;0.43;0.20;;;;;;;8.70;100.00;95065.50;5132553;27;20442;-60
2023/12/15 04:35:45;;;;;;;0.30;0.20;;;;;;;8.65;100.00;95068.16;5133838;27;20839;-60
2023/12/15 04:38:14;;;;;;;0.50;0.30;;;;;;;8.73;100.00;95072.13;5133269;27;20443;-60
2023/12/15 04:40:44;;;;;;;0.57;0.57;;;;;;;8.90;100.00;95073.44;5132769;27;20996;-60
2023/12/15 04:43:12;;;;;;;0.70;0.70;;;;;;;9.05;100.00;95082.44;5132809;27;20472;-60
2023/12/15 04:45:40;;;;;;;0.30;0.20;;;;;;;8.89;100.00;95077.16;5132499;27;20445;-60
2023/12/15 04:48:09;;;;;;;0.30;0.20;;;;;;;8.94;100.00;95073.72;5132786;27;20530;-61
2023/12/15 04:50:37;;;;;;;0.30;0.20;;;;;;;9.15;100.00;95082.44;5132877;27;20549;-60
2023/12/15 04:53:06;;;;;;;0.40;0.30;;;;;;;9.19;100.00;95080.84;5133096;27;20446;-60
2023/12/15 04:55:35;;;;;;;0.30;0.20;;;;;;;9.22;100.00;95093.53;5133028;27;20431;-61
2023/12/15 04:58:05;;;;;;;0.50;0.30;;;;;;;9.22;100.00;95088.25;5133288;27;20442;-60
2023/12/15 05:00:34;;;;;;;0.50;0.43;;;;;;;9.18;100.00;95087.22;5132987;27;20546;-61
2023/12/15 05:03:02;;;;;;;0.30;0.20;;;;;;;8.90;100.00;95076.09;5133261;27;20427;-60
2023/12/15 05:05:31;;;;;;;0.40;0.30;;;;;;;8.91;100.00;95095.38;5133013;27;20430;-61
2023/12/15 05:07:59;;;;;;;0.30;0.20;;;;;;;8.81;100.00;95090.09;5132786;27;20509;-60
2023/12/15 05:10:28;;;;;;;0.40;0.40;;;;;;;8.86;100.00;95090.09;5106378;27;20871;-60
2023/12/15 05:12:56;;;;;;;0.30;0.30;;;;;;;8.87;100.00;95094.34;5133003;27;20466;-59
2023/12/15 05:15:26;;;;;;;0.60;0.53;;;;;;;8.92;100.00;95105.72;5132960;27;20434;-61
2023/12/15 05:17:54;;;;;;;0.40;0.30;;;;;;;8.96;100.00;95108.59;5132562;27;21071;-60
2023/12/15 05:20:23;;;;;;;0.70;0.47;;;;;;;8.81;100.00;95106.75;5132724;27;20551;-60
2023/12/15 05:22:51;;;;;;;2.10;0.67;;;;;;;8.83;100.00;95122.34;5132054;27;20446;-60
2023/12/15 05:25:20;;;;;;;0.83;0.30;;;;;;;8.93;100.00;95117.84;5132475;27;20966;-59
2023/12/15 05:27:48;;;;;;;4.53;0.80;;;;;;;9.12;100.00;95119.97;5132727;27;20434;-60
2023/12/15 05:30:17;;;;;;;1.00;0.70;;;;;;;9.18;100.00;95130.31;5132417;27;20446;-59
2023/12/15 05:32:47;;;;;;;1.27;0.47;;;;;;;9.16;100.00;95137.69;5131821;27;20438;-60
2023/12/15 05:35:15;;;;;;;0.67;0.67;;;;;;;9.13;100.00;95142.72;5132523;27;20453;-60
2023/12/15 05:37:44;;;;;;;1.00;0.90;;;;;;;9.29;100.00;95139.81;5132232;27;20438;-59
2023/12/15 05:40:13;;;;;;;0.80;0.63;;;;;;;9.08;100.00;95148.81;5132780;27;20477;-61
2023/12/15 05:42:41;;;;;;;1.63;1.53;;;;;;;9.27;100.00;95141.13;5131886;27;20434;-60
2023/12/15 05:45:11;;;;;;;1.03;1.03;;;;;;;9.31;100.00;95113.88;5131841;27;20442;-60
2023/12/15 05:47:40;;;;;;;1.07;0.90;;;;;;;9.52;100.00;95131.34;5117515;27;20439;-61
2023/12/15 05:50:12;;;;;;;0.57;0.40;;;;;;;8.98;100.00;95125.00;5122242;27;20441;-61
2023/12/15 05:52:41;;;;;;;0.47;0.30;;;;;;;9.10;100.00;95146.69;5132764;27;20446;-60
2023/12/15 05:55:09;;;;;;;0.73;0.73;;;;;;;9.24;100.00;95160.16;5131535;27;20434;-60
2023/12/15 05:57:38;;;;;;;0.40;0.30;;;;;;;9.20;100.00;95159.13;5132219;28;20439;-60
2023/12/15 06:00:08;;;;;;;0.63;0.50;;;;;;;9.48;100.00;95169.97;5130532;28;20442;-59
2023/12/15 06:02:37;;;;;;;4.40;0.60;;;;;;;9.59;100.00;95158.31;5132060;27;20450;-60
2023/12/15 06:05:08;;;;;;;0.70;0.70;;;;;;;9.50;100.00;95156.47;5126347;28;20439;-60
2023/12/15 06:07:38;;;;;;;0.30;0.20;;;;;;;9.53;100.00;95158.59;5124875;28;20815;-60
2023/12/15 06:10:08;;;;;;;0.40;0.20;;;;;;;9.49;100.00;95165.47;5131961;27;20434;-60
2023/12/15 06:12:36;;;;;;;0.50;0.50;;;;;;;9.37;100.00;95171.03;5131104;27;20447;-60
2023/12/15 06:15:08;;;;;;;0.40;0.37;;;;;;;9.33;100.00;95167.34;5123719;28;20453;-59
2023/12/15 06:17:36;;;;;;;0.30;0.20;;;;;;;9.30;100.00;95183.72;5131568;27;20438;-61
2023/12/15 06:20:08;;;;;;;0.50;0.50;;;;;;;9.33;100.00;95191.13;5132420;27;20439;-59
2023/12/15 06:22:38;;;;;;;0.60;0.47;;;;;;;9.19;100.00;95194.53;5131417;28;20434;-59
2023/12/15 06:25:08;;;;;;;0.40;0.20;;;;;;;9.21;100.00;95197.75;5131899;28;20438;-59
2023/12/15 06:27:37;;;;;;;0.30;0.20;;;;;;;9.38;100.00;95200.91;5132140;27;20434;-60
2023/12/15 06:30:07;;;;;;;0.30;0.20;;;;;;;9.38;100.00;95183.22;5132096;28;20439;-60
2023/12/15 06:32:36;;;;;;;0.40;0.30;;;;;;;9.67;100.00;95207.25;5131595;28;20962;-61
2023/12/15 06:35:06;;;;;;;0.50;0.40;;;;;;;9.57;100.00;95207.25;5133129;27;20430;-61
2023/12/15 06:37:34;;;;;;;0.30;0.20;;;;;;;9.68;100.00;95203.56;5135909;27;20466;-60
2023/12/15 06:40:05;;;;;;;0.40;0.30;;;;;;;9.71;100.00;95213.63;5135900;27;20434;-60
2023/12/15 06:42:34;;;;;;;0.43;0.37;;;;;;;9.75;100.00;95216.50;5135554;27;20477;-60
2023/12/15 06:45:07;;;;;;;0.50;0.40;;;;;;;9.71;100.00;95224.22;5136013;27;20483;-60
2023/12/15 06:47:38;;;;;;;17.07;0.87;;;;;;;9.21;100.00;95221.53;5135138;27;20486;-60
2023/12/15 06:50:08;;;;;;;0.50;0.30;;;;;;;8.58;100.00;95156.63;5135344;27;20954;-59
2023/12/15 06:52:37;;;;;;;1.90;0.50;;;;;;;8.94;100.00;95203.22;5135584;27;20434;-60
2023/12/15 06:55:07;;;;;;;0.87;0.53;;;;;;;9.15;100.00;95235.78;5135690;27;20442;-61
2023/12/15 06:57:36;;;;;;;0.40;0.30;;;;;;;9.33;100.00;95233.47;5122038;27;20435;-60
2023/12/15 07:00:06;;;;;;;5.53;0.47;;;;;;;9.53;100.00;95238.75;5135349;27;20442;-61
2023/12/15 07:02:36;;;;;;;0.40;0.30;;;;;;;9.52;100.00;95244.31;5134885;27;20532;-61
2023/12/15 07:05:05;;;;;;;0.60;0.60;;;;;;;9.16;100.00;95232.88;5135296;27;20442;-61
2023/12/15 07:07:34;;;;;;;0.40;0.40;;;;;;;9.24;100.00;95234.22;5134884;27;20434;-61
2023/12/15 07:10:04;;;;;;;1.03;0.30;;;;;;;9.12;100.00;95231.81;5135430;27;20477;-60
2023/12/15 07:12:33;;;;;;;0.40;0.30;;;;;;;9.09;100.00;95250.84;5134733;27;20434;-60
2023/12/15 07:15:02;;;;;;;0.33;0.23;;;;;;;9.14;100.00;95247.41;5134554;27;20446;-61
2023/12/15 07:17:31;;;;;;;0.40;0.40;;;;;;;9.21;100.00;95240.06;5134759;27;20438;-61
2023/12/15 07:19:59;;;;;;;0.57;0.50;;;;;;;9.18;100.00;95243.22;5135118;27;20519;-60
2023/12/15 07:22:28;;;;;;;0.40;0.40;;;;;;;9.16;100.00;95242.69;5134633;27;20470;-60
2023/12/15 07:24:56;;;;;;;0.67;0.67;;;;;;;8.66;100.00;95178.06;5122510;27;20829;-60
2023/12/15 07:27:25;;;;;;;0.50;0.40;;;;;;;9.16;100.00;95251.38;5134759;27;20435;-61
2023/12/15 07:29:54;;;;;;;0.60;0.60;;;;;;;9.09;100.00;95257.97;5134988;27;20987;-60
2023/12/15 07:32:23;;;;;;;0.33;0.30;;;;;;;9.15;100.00;95267.53;5134607;27;20438;-60
2023/12/15 07:34:52;;;;;;;1.23;0.40;;;;;;;9.14;100.00;95258.78;5135046;27;20434;-60
2023/12/15 07:37:20;;;;;;;1.13;0.60;;;;;;;9.29;100.00;95268.59;5134586;27;20482;-60
2023/12/15 07:39:49;;;;;;;0.40;0.30;;;;;;;9.29;100.00;95276.53;5134914;27;20984;-60
2023/12/15 07:42:17;;;;;;;1.13;1.07;;;;;;;9.12;100.00;95283.91;5134628;27;20478;-60
2023/12/15 07:44:45;;;;;;;1.00;0.53;;;;;;;9.13;100.00;95281.03;5134488;27;20438;-60
2023/12/15 07:47:15;;;;;;;0.40;0.30;;;;;;;9.08;100.00;95281.00;5134006;27;20478;-60
2023/12/15 07:49:44;;;;;;;0.40;0.27;;;;;;;9.05;100.00;95284.16;5134339;27;20802;-60
2023/12/15 07:52:12;;;;;;;0.83;0.50;;;;;;;8.99;100.00;95279.09;5129207;27;20532;-61
2023/12/15 07:54:41;;;;;;;2.30;2.20;;;;;;;9.03;100.00;95298.69;5132493;27;20474;-61
2023/12/15 07:57:10;;;;;;;0.40;0.37;;;;;;;8.95;100.00;95298.13;5134156;27;20442;-60
2023/12/15 07:59:38;;;;;;;1.47;1.37;;;;;;;8.99;100.00;95298.41;5134468;27;20869;-60
2023/12/15 08:02:07;;;;;;;0.97;0.70;;;;;;;9.10;100.00;95307.16;5133792;27;20470;-59
2023/12/15 08:04:37;;;;;;;0.50;0.30;;;;;;;9.11;100.00;95322.00;5114572;27;20431;-60
2023/12/15 08:07:06;;;;;;;0.37;0.30;;;;;;;9.13;100.00;95296.88;5131878;27;20533;-60
2023/12/15 08:09:34;;;;;;;3.43;2.40;;;;;;;9.13;100.00;95302.16;5133559;27;20546;-60
2023/12/15 08:12:03;;;;;;;0.80;0.57;;;;;;;9.13;100.00;95318.03;5134159;27;20515;-60
2023/12/15 08:14:31;;;;;;;13.50;3.17;;;;;;;9.09;100.00;95322.22;5133947;27;20503;-59
2023/12/15 08:16:59;;;;;;;1.07;1.07;;;;;;;8.93;100.00;95326.66;5134054;27;20479;-59
2023/12/15 08:19:31;;;;;;;1.87;1.00;;;;;;;8.82;100.00;95338.25;5120389;27;20431;-61
2023/12/15 08:22:01;;;;;;;2.30;1.40;;;;;;;8.82;100.00;95335.63;5133641;27;20557;-61
2023/12/15 08:24:30;;;;;;;0.40;0.30;;;;;;;8.86;100.00;95336.69;5127159;27;20439;-61
2023/12/15 08:26:58;;;;;;;2.20;0.70;;;;;;;9.02;100.00;95334.09;5133213;27;20445;-60
2023/12/15 08:29:27;;;;;;;1.37;1.20;;;;;;;8.94;100.00;95346.75;5133430;27;20431;-60
2023/12/15 08:31:55;;;;;;;0.70;0.63;;;;;;;9.03;100.00;95346.28;5133722;27;20438;-60
2023/12/15 08:34:26;;;;;;;1.37;0.53;;;;;;;9.04;100.00;95346.00;5133879;27;20445;-61
2023/12/15 08:36:55;;;;;;;0.30;0.20;;;;;;;9.07;100.00;95366.66;5133578;27;20537;-60
2023/12/15 08:39:24;;;;;;;0.80;0.30;;;;;;;9.12;100.00;95366.66;5132984;27;20522;-60
2023/12/15 08:41:53;;;;;;;4.47;0.67;;;;;;;9.00;100.00;95354.72;5132986;27;20470;-60
2023/12/15 08:44:21;;;;;;;3.40;3.20;;;;;;;9.04;100.00;95361.06;5132701;27;20438;-60
2023/12/15 08:47:01;;;;;;;0.67;0.50;;;;;;;8.91;100.00;95363.13;5133561;27;20498;-60
2023/12/15 08:49:29;;;;;;;1.33;1.33;;;;;;;9.12;100.00;95361.38;5133673;27;20434;-61
2023/12/15 08:51:58;;;;;;;1.50;1.40;;;;;;;8.90;100.00;95350.97;5132513;27;20470;-60
2023/12/15 08:54:28;;;;;;;0.50;0.50;;;;;;;8.95;100.00;95368.72;5133092;27;20452;-60
2023/12/15 08:56:56;;;;;;;1.63;0.77;;;;;;;9.10;100.00;95368.78;5132282;27;20525;-59
2023/12/15 08:59:25;;;;;;;0.70;0.67;;;;;;;9.09;100.00;95361.09;5133159;27;20435;-61
2023/12/15 09:01:53;;;;;;;0.40;0.30;;;;;;;8.99;99.24;95375.06;5132455;27;20470;-61
2023/12/15 09:04:21;;;;;;;1.53;0.70;;;;;;;9.10;100.00;95381.19;5123445;27;20526;-61
2023/12/15 09:06:50;;;;;;;2.10;0.40;;;;;;;8.89;100.00;95375.81;5132650;27;20443;-59
2023/12/15 09:09:21;;;;;;;0.70;0.70;;;;;;;9.02;100.00;95363.97;5132742;27;20438;-60
2023/12/15 09:11:52;;;;;;;0.90;0.90;;;;;;;9.25;100.00;95370.69;5132739;27;20923;-60
2023/12/15 09:14:21;;;;;;;0.40;0.30;;;;;;;9.15;100.00;95370.66;5132186;27;20435;-60
2023/12/15 09:16:50;;;;;;;0.50;0.50;;;;;;;9.04;100.00;95382.22;5132594;27;20434;-61
2023/12/15 09:19:18;;;;;;;8.23;2.50;;;;;;;8.89;100.00;95370.53;5113438;27;20431;-60
2023/12/15 09:21:47;;;;;;;6.90;2.00;;;;;;;9.02;100.00;95371.13;5124419;27;20438;-60
2023/12/15 09:24:17;;;;;;;0.50;0.40;;;;;;;9.17;100.00;95368.53;5132545;27;20442;-60
2023/12/15 09:26:46;;;;;;;0.80;0.50;;;;;;;8.98;100.00;95372.69;5132342;27;20450;-60
2023/12/15 09:29:18;;;;;;;0.93;0.83;;;;;;;8.86;100.00;95365.75;5132460;27;20499;-61
2023/12/15 09:31:47;;;;;;;0.60;0.50;;;;;;;8.73;100.00;95370.69;5109905;27;21047;-60
2023/12/15 09:34:17;;;;;;;0.43;0.40;;;;;;;8.81;100.00;95372.84;5132117;27;20802;-60
2023/12/15 09:36:45;;;;;;;3.40;0.57;;;;;;;8.72;100.00;95379.69;5132355;27;20434;-60
2023/12/15 09:39:14;;;;;;;0.57;0.53;;;;;;;9.00;100.00;95370.59;5132134;27;20430;-60
2023/12/15 09:41:42;;;;;;;0.40;0.37;;;;;;;8.72;100.00;95359.34;5132048;27;20435;-60
2023/12/15 09:44:11;;;;;;;1.47;0.37;;;;;;;8.67;100.00;95377.81;5132177;27;20481;-60
2023/12/15 09:46:42;;;;;;;0.40;0.30;;;;;;;8.70;100.00;95387.84;5132824;27;20480;-60
2023/12/15 09:49:14;;;;;;;1.50;1.40;;;;;;;8.84;100.00;95378.44;5132098;27;20491;-59
2023/12/15 09:51:48;;;;;;;1.10;1.10;;;;;;;8.80;100.00;95387.91;5132022;27;20493;-60
2023/12/15 09:54:17;;;;;;;0.30;0.30;;;;;;;8.74;100.00;95356.44;5132120;27;20462;-61
2023/12/15 09:56:46;;;;;;;0.97;0.97;;;;;;;8.80;100.00;95384.50;5131973;27;20483;-60
2023/12/15 09:59:14;;;;;;;0.70;0.70;;;;;;;8.77;100.00;95379.72;5132386;28;21003;-60
2023/12/15 10:01:44;;;;;;;1.80;0.87;;;;;;;8.68;100.00;95362.75;5132318;28;20521;-60
2023/12/15 10:04:12;;;;;;;0.40;0.30;;;;;;;8.79;100.00;95386.34;5132571;27;20530;-60
2023/12/15 10:06:41;;;;;;;2.73;1.37;;;;;;;9.02;100.00;95374.56;5131967;28;20450;-60
2023/12/15 10:09:13;;;;;;;0.50;0.50;;;;;;;9.03;100.00;95385.94;5133898;27;20850;-60
2023/12/15 10:11:44;;;;;;;5.67;1.23;;;;;;;8.83;100.00;95381.31;5135060;27;20495;-60
2023/12/15 10:14:16;;;;;;;1.47;0.70;;;;;;;8.94;100.00;95404.91;5136933;27;20521;-60
2023/12/15 10:16:47;;;;;;;0.93;0.93;;;;;;;9.07;100.00;95397.56;5136502;27;20442;-60
2023/12/15 10:19:15;;;;;;;0.50;0.50;;;;;;;8.98;100.00;95401.78;5136451;27;20463;-61
2023/12/15 10:21:44;;;;;;;0.50;0.40;;;;;;;8.84;100.00;95394.28;5135575;27;20438;-60
2023/12/15 10:24:20;;;;;;;0.30;0.20;;;;;;;8.67;100.00;95383.09;5136085;27;21055;-61
2023/12/15 10:26:49;;;;;;;0.87;0.87;;;;;;;8.76;100.00;95400.06;5111916;27;20449;-59
2023/12/15 10:29:19;;;;;;;0.40;0.30;;;;;;;8.84;100.00;95399.56;5135860;27;20458;-61
2023/12/15 10:31:51;;;;;;;0.40;0.27;;;;;;;8.82;100.00;95393.75;5135124;27;20509;-60
2023/12/15 10:34:22;;;;;;;0.30;0.30;;;;;;;8.83;100.00;95399.81;5136426;27;20431;-60
2023/12/15 10:36:51;;;;;;;0.40;0.40;;;;;;;8.69;100.00;95410.06;5136261;27;20474;-61
2023/12/15 10:39:21;;;;;;;0.50;0.40;;;;;;;8.49;100.00;95370.31;5135563;27;20480;-60
2023/12/15 10:41:51;;;;;;;0.60;0.60;;;;;;;8.53;100.00;95421.56;5136087;27;20944;-60
2023/12/15 10:44:22;;;;;;;0.40;0.40;;;;;;;8.69;100.00;95439.13;5135220;27;20558;-60
2023/12/15 10:46:53;;;;;;;0.53;0.53;;;;;;;8.82;100.00;95427.31;5135004;27;20445;-60
2023/12/15 10:49:21;;;;;;;0.60;0.60;;;;;;;8.77;100.00;95412.22;5108614;27;20426;-61
2023/12/15 10:51:50;;;;;;;0.50;0.50;;;;;;;8.81;100.00;95429.16;5135082;27;20472;-61
2023/12/15 10:54:19;;;;;;;0.50;0.33;;;;;;;8.58;100.00;95421.59;5135351;27;20442;-60
2023/12/15 10:56:51;;;;;;;0.30;0.30;;;;;;;8.71;100.00;95421.16;5135493;27;20537;-60
2023/12/15 10:59:20;;;;;;;0.40;0.40;;;;;;;8.89;100.00;95419.94;5135664;27;20875;-60
2023/12/15 11:01:49;;;;;;;0.30;0.30;;;;;;;8.80;100.00;95413.56;5121032;27;20435;-60
2023/12/15 11:04:21;;;;;;;0.40;0.40;;;;;;;8.82;100.00;95408.81;5135580;27;20565;-60
2023/12/15 11:06:50;;;;;;;0.50;0.50;;;;;;;8.65;100.00;95401.03;5134944;27;20477;-60
2023/12/15 11:09:30;;;;;;;0.80;0.63;;;;;;;8.50;100.00;95398.28;5135659;27;20442;-59
2023/12/15 11:12:23;;;;;;;0.40;0.40;;;;;;;8.58;100.00;95392.53;5135290;27;20435;-60
2023/12/15 11:14:53;;;;;;;0.30;0.20;;;;;;;8.52;100.00;95403.34;5134977;27;20445;-61
2023/12/15 11:17:22;;;;;;;0.80;0.70;;;;;;;8.51;100.00;95418.38;5135414;27;20434;-60
2023/12/15 11:19:57;;;;;;;1.03;0.93;;;;;;;8.64;100.00;95423.22;5135525;27;20791;-60
2023/12/15 11:22:28;;;;;;;0.40;0.30;;;;;;;7.53;100.00;95292.19;5134449;27;20434;-60
2023/12/15 11:24:57;;;;;;;0.50;0.37;;;;;;;8.40;100.00;95439.69;5134490;27;20474;-61
2023/12/15 11:27:25;;;;;;;0.50;0.40;;;;;;;8.68;100.00;95431.44;5135286;27;20442;-60
2023/12/15 11:29:54;;;;;;;0.40;0.30;;;;;;;8.66;100.00;95434.34;5135322;27;20561;-60
2023/12/15 11:32:29;;;;;;;0.60;0.40;;;;;;;8.65;100.00;95435.38;5134461;27;20499;-59
2023/12/15 11:34:59;;;;;;;0.60;0.40;;;;;;;8.77;100.00;95438.66;5135025;27;20438;-60
2023/12/15 11:37:28;;;;;;;0.30;0.30;;;;;;;8.43;100.00;95450.53;5134543;27;20439;-60
2023/12/15 11:39:57;;;;;;;0.40;0.40;;;;;;;7.87;100.00;95391.16;5134929;27;20970;-60
2023/12/15 11:42:26;;;;;;;0.47;0.47;;;;;;;8.38;100.00;95445.22;5134411;27;20442;-60